createdAt,value
2023-11-13T00:00:31.978Z,74.08
2023-11-13T00:02:59.198Z,73.44
2023-11-13T00:05:26.388Z,73.69
2023-11-13T00:07:56.630Z,73.71
2023-11-13T00:10:24.594Z,73.63
2023-11-13T00:12:51.928Z,73.27
2023-11-13T00:15:19.163Z,73.08
2023-11-13T00:17:46.418Z,73.39
2023-11-13T00:20:13.683Z,73.22
2023-11-13T00:22:40.755Z,73.22
2023-11-13T00:25:08.940Z,73.23
2023-11-13T00:27:36.169Z,73.50
2023-11-13T00:30:04.198Z,73.52
2023-11-13T00:32:32.181Z,73.04
2023-11-13T00:34:59.726Z,72.99
2023-11-13T00:37:27.065Z,73.06
2023-11-13T00:39:54.880Z,72.56
2023-11-13T00:42:22.079Z,72.59
2023-11-13T00:44:50.492Z,72.76
2023-11-13T00:47:17.681Z,72.62
2023-11-13T00:49:46.042Z,72.80
2023-11-13T00:52:13.357Z,72.62
2023-11-13T00:54:40.585Z,72.59
2023-11-13T00:57:08.580Z,72.76
2023-11-13T00:59:36.455Z,72.42
2023-11-13T01:02:04.426Z,72.54
2023-11-13T01:04:31.922Z,72.35
2023-11-13T01:06:59.145Z,72.24
2023-11-13T01:09:26.582Z,72.25
2023-11-13T01:11:54.263Z,72.24
2023-11-13T01:14:21.765Z,72.56
2023-11-13T01:16:49.231Z,72.23
2023-11-13T01:19:16.448Z,72.41
2023-11-13T01:21:43.581Z,72.20
2023-11-13T01:24:10.873Z,72.34
2023-11-13T01:26:38.153Z,72.26
2023-11-13T01:29:05.343Z,72.49
2023-11-13T01:31:32.457Z,72.04
2023-11-13T01:33:59.704Z,72.14
2023-11-13T01:36:28.103Z,72.25
2023-11-13T01:38:55.265Z,72.07
2023-11-13T01:41:22.335Z,72.08
2023-11-13T01:43:49.536Z,72.14
2023-11-13T01:46:18.726Z,72.09
2023-11-13T01:48:46.446Z,71.81
2023-11-13T01:51:14.816Z,71.81
2023-11-13T01:53:42.199Z,72.07
2023-11-13T01:56:09.429Z,71.84
2023-11-13T01:58:36.609Z,71.79
2023-11-13T02:01:04.124Z,71.50
2023-11-13T02:03:35.660Z,71.80
2023-11-13T02:06:02.935Z,71.75
2023-11-13T02:08:30.109Z,71.71
2023-11-13T02:10:57.395Z,71.46
2023-11-13T02:13:26.143Z,71.52
2023-11-13T02:15:53.441Z,71.61
2023-11-13T02:18:20.886Z,71.66
2023-11-13T02:20:48.459Z,71.53
2023-11-13T02:23:16.753Z,71.27
2023-11-13T02:25:50.703Z,71.01
2023-11-13T02:28:18.188Z,71.16
2023-11-13T02:30:45.653Z,71.20
2023-11-13T02:33:12.922Z,70.92
2023-11-13T02:35:40.279Z,71.01
2023-11-13T02:38:07.587Z,71.24
2023-11-13T02:40:34.869Z,70.80
2023-11-13T02:43:02.004Z,70.56
2023-11-13T02:45:29.366Z,70.79
2023-11-13T02:47:57.207Z,70.82
2023-11-13T02:50:25.640Z,70.40
2023-11-13T02:52:52.851Z,70.26
2023-11-13T02:55:20.040Z,70.60
2023-11-13T02:57:47.323Z,70.54
2023-11-13T03:00:15.025Z,70.44
2023-11-13T03:02:42.156Z,70.38
2023-11-13T03:05:10.046Z,70.51
2023-11-13T03:07:37.720Z,70.38
2023-11-13T03:10:06.794Z,70.25
2023-11-13T03:12:34.059Z,70.30
2023-11-13T03:15:02.048Z,70.14
2023-11-13T03:17:31.772Z,70.52
2023-11-13T03:19:58.948Z,70.23
2023-11-13T03:22:26.486Z,70.12
2023-11-13T03:24:53.748Z,70.12
2023-11-13T03:27:20.905Z,70.11
2023-11-13T03:29:48.221Z,70.03
2023-11-13T03:32:15.664Z,70.40
2023-11-13T03:34:42.844Z,70.16
2023-11-13T03:37:09.974Z,70.13
2023-11-13T03:39:37.753Z,70.00
2023-11-13T03:42:05.216Z,69.87
2023-11-13T03:44:32.415Z,69.89
2023-11-13T03:46:59.614Z,69.92
2023-11-13T03:49:26.828Z,69.92
2023-11-13T03:51:55.287Z,69.82
2023-11-13T03:54:23.826Z,69.73
2023-11-13T03:56:51.381Z,69.53
2023-11-13T03:59:19.796Z,69.51
2023-11-13T04:01:50.285Z,69.60
2023-11-13T04:04:19.491Z,69.79
2023-11-13T04:06:46.784Z,69.64
2023-11-13T04:09:14.188Z,69.70
2023-11-13T04:11:41.395Z,69.47
2023-11-13T04:14:08.582Z,69.22
2023-11-13T04:16:35.892Z,69.39
2023-11-13T04:19:04.134Z,69.48
2023-11-13T04:21:33.152Z,69.47
2023-11-13T04:24:00.911Z,69.66
2023-11-13T04:26:28.668Z,69.62
2023-11-13T04:28:55.966Z,69.39
2023-11-13T04:31:23.645Z,69.39
2023-11-13T04:33:50.984Z,69.39
2023-11-13T04:36:18.450Z,69.92
2023-11-13T04:38:45.806Z,69.50
2023-11-13T04:41:16.890Z,69.50
2023-11-13T04:43:45.304Z,69.72
2023-11-13T04:46:14.298Z,69.71
2023-11-13T04:48:42.224Z,69.86
2023-11-13T04:51:09.698Z,70.22
2023-11-13T04:53:37.225Z,69.71
2023-11-13T04:56:04.668Z,70.29
2023-11-13T04:58:33.804Z,69.99
2023-11-13T05:01:01.134Z,70.49
2023-11-13T05:03:28.514Z,70.36
2023-11-13T05:05:55.796Z,70.16
2023-11-13T05:08:22.836Z,70.62
2023-11-13T05:10:50.343Z,70.44
2023-11-13T05:13:17.593Z,70.65
2023-11-13T05:15:44.781Z,70.97
2023-11-13T05:18:12.290Z,70.62
2023-11-13T05:20:40.948Z,71.59
2023-11-13T05:23:08.087Z,71.12
2023-11-13T05:25:35.418Z,71.23
2023-11-13T05:28:02.847Z,71.23
2023-11-13T05:30:30.071Z,71.24
2023-11-13T05:32:57.484Z,71.00
2023-11-13T05:35:25.098Z,71.19
2023-11-13T05:37:52.219Z,71.22
2023-11-13T05:40:20.753Z,71.44
2023-11-13T05:42:48.216Z,71.11
2023-11-13T05:45:16.253Z,71.59
2023-11-13T05:47:45.806Z,71.38
2023-11-13T05:50:13.149Z,71.36
2023-11-13T05:52:41.013Z,71.37
2023-11-13T05:55:09.996Z,71.34
2023-11-13T05:57:37.335Z,71.45
2023-11-13T06:00:05.729Z,71.45
2023-11-13T06:02:40.083Z,71.46
2023-11-13T06:05:07.459Z,71.28
2023-11-13T06:07:35.074Z,71.14
2023-11-13T06:10:02.488Z,71.47
2023-11-13T06:12:30.963Z,100.00
2023-11-13T06:14:58.146Z,100.00
2023-11-13T06:17:26.706Z,100.00
2023-11-13T06:19:54.765Z,100.00
2023-11-13T06:22:22.399Z,100.00
2023-11-13T06:24:49.563Z,100.00
2023-11-13T06:27:16.808Z,100.00
2023-11-13T06:29:43.986Z,100.00
2023-11-13T06:32:11.581Z,100.00
2023-11-13T06:34:38.920Z,100.00
2023-11-13T06:37:06.044Z,100.00
2023-11-13T06:39:33.815Z,100.00
2023-11-13T06:42:00.947Z,100.00
2023-11-13T06:44:28.195Z,100.00
2023-11-13T06:46:55.453Z,100.00
2023-11-13T06:49:23.074Z,100.00
2023-11-13T06:51:50.555Z,100.00
2023-11-13T06:54:17.797Z,100.00
2023-11-13T06:56:45.106Z,100.00
2023-11-13T06:59:12.565Z,100.00
2023-11-13T07:01:43.635Z,100.00
2023-11-13T07:04:11.552Z,100.00
2023-11-13T07:06:42.358Z,100.00
2023-11-13T07:09:12.359Z,100.00
2023-11-13T07:11:49.161Z,100.00
2023-11-13T07:14:17.010Z,100.00
2023-11-13T07:16:44.962Z,100.00
2023-11-13T07:19:15.550Z,100.00
2023-11-13T07:21:43.089Z,100.00
2023-11-13T07:24:10.777Z,100.00
2023-11-13T07:26:38.334Z,100.00
2023-11-13T07:29:05.662Z,100.00
2023-11-13T07:31:33.171Z,100.00
2023-11-13T07:34:00.513Z,100.00
2023-11-13T07:36:28.056Z,100.00
2023-11-13T07:38:55.421Z,100.00
2023-11-13T07:41:22.932Z,100.00
2023-11-13T07:43:50.909Z,100.00
2023-11-13T07:46:19.824Z,100.00
2023-11-13T07:48:48.081Z,100.00
2023-11-13T07:51:15.332Z,100.00
2023-11-13T07:53:43.557Z,100.00
2023-11-13T07:56:12.714Z,100.00
2023-11-13T07:58:40.046Z,100.00
2023-11-13T08:01:07.679Z,100.00
2023-11-13T08:03:35.023Z,100.00
2023-11-13T08:06:02.203Z,100.00
2023-11-13T08:08:29.343Z,100.00
2023-11-13T08:10:57.697Z,100.00
2023-11-13T08:13:25.668Z,100.00
2023-11-13T08:15:53.917Z,100.00
2023-11-13T08:18:21.191Z,100.00
2023-11-13T08:20:48.517Z,100.00
2023-11-13T08:23:16.685Z,100.00
2023-11-13T08:25:49.730Z,100.00
2023-11-13T08:28:17.225Z,100.00
2023-11-13T08:30:45.769Z,100.00
2023-11-13T08:33:14.314Z,100.00
2023-11-13T08:35:43.455Z,100.00
2023-11-13T08:38:12.828Z,100.00
2023-11-13T08:40:40.322Z,100.00
2023-11-13T08:43:12.567Z,100.00
2023-11-13T08:45:54.699Z,100.00
2023-11-13T08:48:28.060Z,100.00
2023-11-13T08:50:55.227Z,100.00
2023-11-13T08:53:22.509Z,100.00
2023-11-13T08:55:49.752Z,100.00
2023-11-13T08:58:16.916Z,100.00
2023-11-13T09:00:45.354Z,100.00
2023-11-13T09:03:13.351Z,100.00
2023-11-13T09:05:40.551Z,100.00
2023-11-13T09:08:09.818Z,100.00
2023-11-13T09:10:37.600Z,100.00
2023-11-13T09:13:06.154Z,100.00
2023-11-13T09:15:34.385Z,100.00
2023-11-13T09:18:07.436Z,100.00
2023-11-13T09:20:36.375Z,100.00
2023-11-13T09:23:07.534Z,100.00
2023-11-13T09:25:35.641Z,100.00
2023-11-13T09:28:02.907Z,100.00
2023-11-13T09:30:32.041Z,100.00
2023-11-13T09:33:01.132Z,100.00
2023-11-13T09:35:30.574Z,100.00
2023-11-13T09:37:59.924Z,100.00
2023-11-13T09:40:36.010Z,100.00
2023-11-13T09:43:08.759Z,100.00
2023-11-13T09:45:38.619Z,100.00
2023-11-13T09:48:09.331Z,100.00
2023-11-13T09:50:41.150Z,100.00
2023-11-13T09:53:09.750Z,100.00
2023-11-13T09:55:42.639Z,100.00
2023-11-13T09:58:13.481Z,100.00
2023-11-13T10:00:42.140Z,100.00
2023-11-13T10:03:16.361Z,100.00
2023-11-13T10:05:44.965Z,100.00
2023-11-13T10:08:13.076Z,100.00
2023-11-13T10:10:44.810Z,100.00
2023-11-13T10:13:14.537Z,100.00
2023-11-13T10:15:46.135Z,100.00
2023-11-13T10:18:14.772Z,100.00
2023-11-13T10:20:48.270Z,100.00
2023-11-13T10:23:18.035Z,100.00
2023-11-13T10:25:57.529Z,100.00
2023-11-13T10:28:36.148Z,100.00
2023-11-13T10:31:06.138Z,100.00
2023-11-13T10:33:33.609Z,100.00
2023-11-13T10:36:06.412Z,100.00
2023-11-13T10:38:48.778Z,100.00
2023-11-13T10:41:31.043Z,100.00
2023-11-13T10:43:58.552Z,100.00
2023-11-13T10:46:30.718Z,100.00
2023-11-13T10:48:59.763Z,100.00
2023-11-13T10:51:28.893Z,100.00
2023-11-13T10:53:57.029Z,100.00
2023-11-13T10:56:26.407Z,100.00
2023-11-13T10:58:54.875Z,100.00
2023-11-13T11:01:30.283Z,100.00
2023-11-13T11:04:06.804Z,100.00
2023-11-13T11:06:40.782Z,100.00
2023-11-13T11:09:13.830Z,100.00
2023-11-13T11:11:41.963Z,100.00
2023-11-13T11:14:17.275Z,100.00
2023-11-13T11:16:49.982Z,100.00
2023-11-13T11:19:20.408Z,100.00
2023-11-13T11:22:01.585Z,100.00
2023-11-13T11:24:48.323Z,100.00
2023-11-13T11:27:45.565Z,100.00
2023-11-13T11:30:18.985Z,100.00
2023-11-13T11:32:58.605Z,100.00
2023-11-13T11:35:30.923Z,100.00
2023-11-13T11:38:16.611Z,100.00
2023-11-13T11:40:46.236Z,100.00
2023-11-13T11:43:19.681Z,100.00
2023-11-13T11:45:52.870Z,100.00
2023-11-13T11:48:22.321Z,100.00
2023-11-13T11:50:59.096Z,100.00
2023-11-13T11:53:27.939Z,100.00
2023-11-13T11:55:55.242Z,100.00
2023-11-13T11:58:22.585Z,100.00
2023-11-13T12:00:49.902Z,100.00
2023-11-13T12:03:17.201Z,100.00
2023-11-13T12:05:44.532Z,100.00
2023-11-13T12:08:14.501Z,100.00
2023-11-13T12:10:44.168Z,100.00
2023-11-13T12:13:11.653Z,100.00
2023-11-13T12:15:38.834Z,100.00
2023-11-13T12:18:06.627Z,100.00
2023-11-13T12:20:34.455Z,100.00
2023-11-13T12:23:01.600Z,100.00
2023-11-13T12:25:28.863Z,100.00
2023-11-13T12:27:57.081Z,100.00
2023-11-13T12:30:28.252Z,100.00
2023-11-13T12:32:56.586Z,100.00
2023-11-13T12:35:24.269Z,100.00
2023-11-13T12:37:53.557Z,100.00
2023-11-13T12:40:22.686Z,100.00
2023-11-13T12:42:51.015Z,100.00
2023-11-13T12:45:20.330Z,100.00
2023-11-13T12:47:49.606Z,100.00
2023-11-13T12:50:21.127Z,100.00
2023-11-13T12:52:52.333Z,100.00
2023-11-13T12:55:21.532Z,100.00
2023-11-13T12:57:51.095Z,100.00
2023-11-13T13:00:21.282Z,100.00
2023-11-13T13:02:51.586Z,100.00
2023-11-13T13:05:29.171Z,100.00
2023-11-13T13:08:03.096Z,100.00
2023-11-13T13:10:35.405Z,100.00
2023-11-13T13:13:06.394Z,100.00
2023-11-13T13:15:34.279Z,100.00
2023-11-13T13:18:04.433Z,100.00
2023-11-13T13:20:32.377Z,100.00
2023-11-13T13:23:00.937Z,100.00
2023-11-13T13:25:31.390Z,100.00
2023-11-13T13:28:06.757Z,100.00
2023-11-13T13:30:37.052Z,100.00
2023-11-13T13:33:11.315Z,100.00
2023-11-13T13:35:40.459Z,100.00
2023-11-13T13:38:08.173Z,100.00
2023-11-13T13:40:38.712Z,100.00
2023-11-13T13:43:07.955Z,100.00
2023-11-13T13:45:35.581Z,100.00
2023-11-13T13:48:03.251Z,100.00
2023-11-13T13:50:34.164Z,100.00
2023-11-13T13:53:05.868Z,100.00
2023-11-13T13:55:35.007Z,100.00
2023-11-13T13:58:03.191Z,100.00
2023-11-13T14:00:37.490Z,100.00
2023-11-13T14:03:12.393Z,100.00
2023-11-13T14:05:44.579Z,100.00
2023-11-13T14:08:17.668Z,100.00
2023-11-13T14:10:52.333Z,100.00
2023-11-13T14:13:26.609Z,100.00
2023-11-13T14:16:04.771Z,100.00
2023-11-13T14:18:40.359Z,100.00
2023-11-13T14:21:15.295Z,100.00
2023-11-13T14:23:44.174Z,100.00
2023-11-13T14:26:16.382Z,100.00
2023-11-13T14:28:44.256Z,100.00
2023-11-13T14:31:11.609Z,100.00
2023-11-13T14:33:40.317Z,100.00
2023-11-13T14:36:10.649Z,100.00
2023-11-13T14:38:39.200Z,100.00
2023-11-13T14:41:06.641Z,100.00
2023-11-13T14:43:33.833Z,100.00
2023-11-13T14:46:03.902Z,100.00
2023-11-13T14:48:32.539Z,100.00
2023-11-13T14:51:00.029Z,100.00
2023-11-13T14:53:27.130Z,100.00
2023-11-13T14:55:54.336Z,100.00
2023-11-13T14:58:21.787Z,100.00
2023-11-13T15:00:50.401Z,100.00
2023-11-13T15:03:17.748Z,100.00
2023-11-13T15:05:45.325Z,100.00
2023-11-13T15:08:13.571Z,100.00
2023-11-13T15:10:40.757Z,100.00
2023-11-13T15:13:09.785Z,100.00
2023-11-13T15:15:37.082Z,100.00
2023-11-13T15:18:05.469Z,100.00
2023-11-13T15:20:33.182Z,100.00
2023-11-13T15:23:14.626Z,100.00
2023-11-13T15:25:51.860Z,100.00
2023-11-13T15:28:20.690Z,100.00
2023-11-13T15:30:48.818Z,100.00
2023-11-13T15:33:17.349Z,100.00
2023-11-13T15:35:44.557Z,100.00
2023-11-13T15:38:11.937Z,100.00
2023-11-13T15:40:39.124Z,100.00
2023-11-13T15:43:08.113Z,100.00
2023-11-13T15:45:35.313Z,100.00
2023-11-13T15:48:02.512Z,100.00
2023-11-13T15:50:33.105Z,100.00
2023-11-13T15:53:00.270Z,100.00
2023-11-13T15:55:27.504Z,100.00
2023-11-13T15:57:54.885Z,100.00
2023-11-13T16:00:24.320Z,100.00
2023-11-13T16:02:51.590Z,100.00
2023-11-13T16:05:20.303Z,100.00
2023-11-13T16:07:49.293Z,100.00
2023-11-13T16:10:17.047Z,100.00
2023-11-13T16:12:47.423Z,100.00
2023-11-13T16:15:14.667Z,100.00
2023-11-13T16:17:42.167Z,100.00
2023-11-13T16:20:11.459Z,100.00
2023-11-13T16:22:39.469Z,100.00
2023-11-13T16:25:09.130Z,100.00
2023-11-13T16:27:38.339Z,100.00
2023-11-13T16:30:08.527Z,100.00
2023-11-13T16:32:36.928Z,100.00
2023-11-13T16:35:05.981Z,100.00
2023-11-13T16:37:33.686Z,100.00
2023-11-13T16:40:01.500Z,100.00
2023-11-13T16:42:32.177Z,100.00
2023-11-13T16:44:59.275Z,100.00
2023-11-13T16:47:26.832Z,100.00
2023-11-13T16:49:54.056Z,100.00
2023-11-13T16:52:21.351Z,100.00
2023-11-13T16:54:48.617Z,100.00
2023-11-13T16:57:15.825Z,100.00
2023-11-13T16:59:44.128Z,100.00
2023-11-13T17:02:11.418Z,100.00
2023-11-13T17:04:38.725Z,100.00
2023-11-13T17:07:06.089Z,100.00
2023-11-13T17:09:33.289Z,100.00
2023-11-13T17:12:00.772Z,100.00
2023-11-13T17:14:28.039Z,100.00
2023-11-13T17:16:55.494Z,100.00
2023-11-13T17:19:22.778Z,100.00
2023-11-13T17:21:50.490Z,100.00
2023-11-13T17:24:18.068Z,100.00
2023-11-13T17:26:45.432Z,100.00
2023-11-13T17:29:12.636Z,100.00
2023-11-13T17:31:40.310Z,100.00
2023-11-13T17:34:08.403Z,100.00
2023-11-13T17:36:35.526Z,100.00
2023-11-13T17:39:02.744Z,100.00
2023-11-13T17:41:30.470Z,100.00
2023-11-13T17:43:58.967Z,100.00
2023-11-13T17:46:26.345Z,100.00
2023-11-13T17:48:53.615Z,100.00
2023-11-13T17:51:21.856Z,100.00
2023-11-13T17:53:49.257Z,100.00
2023-11-13T17:56:16.471Z,100.00
2023-11-13T17:58:43.668Z,100.00
2023-11-13T18:01:11.771Z,100.00
2023-11-13T18:03:39.248Z,100.00
2023-11-13T18:06:06.849Z,100.00
2023-11-13T18:08:35.051Z,100.00
2023-11-13T18:11:04.353Z,100.00
2023-11-13T18:13:33.555Z,100.00
2023-11-13T18:16:01.427Z,100.00
2023-11-13T18:18:30.832Z,100.00
2023-11-13T18:20:58.491Z,100.00
2023-11-13T18:23:25.653Z,100.00
2023-11-13T18:25:56.969Z,100.00
2023-11-13T18:28:25.794Z,100.00
2023-11-13T18:30:57.790Z,100.00
2023-11-13T18:33:32.241Z,100.00
2023-11-13T18:35:59.770Z,100.00
2023-11-13T18:38:27.408Z,100.00
2023-11-13T18:40:54.890Z,100.00
2023-11-13T18:43:22.757Z,100.00
2023-11-13T18:45:53.409Z,100.00
2023-11-13T18:48:21.238Z,100.00
2023-11-13T18:50:48.956Z,100.00
2023-11-13T18:53:17.083Z,100.00
2023-11-13T18:55:46.913Z,100.00
2023-11-13T18:58:14.854Z,100.00
2023-11-13T19:00:42.057Z,100.00
2023-11-13T19:03:09.886Z,100.00
2023-11-13T19:05:37.407Z,100.00
2023-11-13T19:08:05.434Z,100.00
2023-11-13T19:10:32.742Z,100.00
2023-11-13T19:13:03.279Z,100.00
2023-11-13T19:15:30.804Z,100.00
2023-11-13T19:17:58.401Z,100.00
2023-11-13T19:20:28.970Z,100.00
2023-11-13T19:22:58.729Z,100.00
2023-11-13T19:25:26.695Z,100.00
2023-11-13T19:27:54.036Z,100.00
2023-11-13T19:30:21.549Z,100.00
2023-11-13T19:32:55.871Z,100.00
2023-11-13T19:35:28.905Z,100.00
2023-11-13T19:37:58.043Z,100.00
2023-11-13T19:40:25.920Z,100.00
2023-11-13T19:42:53.226Z,100.00
2023-11-13T19:45:22.459Z,100.00
2023-11-13T19:47:49.904Z,100.00
2023-11-13T19:50:18.515Z,100.00
2023-11-13T19:52:47.935Z,100.00
2023-11-13T19:55:16.522Z,100.00
2023-11-13T19:57:45.680Z,100.00
2023-11-13T20:00:18.049Z,100.00
2023-11-13T20:02:47.886Z,100.00
2023-11-13T20:05:15.419Z,100.00
2023-11-13T20:07:42.805Z,100.00
2023-11-13T20:10:11.501Z,100.00
2023-11-13T20:12:39.360Z,100.00
2023-11-13T20:15:08.348Z,100.00
2023-11-13T20:17:36.148Z,100.00
2023-11-13T20:20:03.922Z,100.00
2023-11-13T20:22:31.413Z,100.00
2023-11-13T20:24:59.089Z,100.00
2023-11-13T20:27:26.357Z,100.00
2023-11-13T20:30:03.223Z,100.00
2023-11-13T20:32:34.294Z,100.00
2023-11-13T20:35:02.210Z,100.00
2023-11-13T20:37:31.514Z,100.00
2023-11-13T20:39:59.414Z,100.00
2023-11-13T20:42:27.275Z,100.00
2023-11-13T20:44:54.655Z,100.00
2023-11-13T20:47:22.143Z,100.00
2023-11-13T20:49:51.102Z,100.00
2023-11-13T20:52:18.938Z,100.00
2023-11-13T20:54:46.226Z,100.00
2023-11-13T20:57:14.612Z,100.00
2023-11-13T20:59:42.151Z,100.00
2023-11-13T21:02:10.779Z,100.00
2023-11-13T21:04:41.849Z,100.00
2023-11-13T21:07:09.320Z,100.00
2023-11-13T21:09:36.457Z,100.00
2023-11-13T21:12:05.139Z,100.00
2023-11-13T21:14:32.299Z,100.00
2023-11-13T21:16:59.453Z,100.00
2023-11-13T21:19:26.685Z,100.00
2023-11-13T21:21:53.909Z,100.00
2023-11-13T21:24:21.973Z,100.00
2023-11-13T21:26:49.993Z,100.00
2023-11-13T21:29:18.067Z,100.00
2023-11-13T21:31:45.495Z,100.00
2023-11-13T21:34:12.742Z,100.00
2023-11-13T21:36:39.938Z,100.00
2023-11-13T21:39:09.378Z,100.00
2023-11-13T21:41:36.692Z,100.00
2023-11-13T21:44:04.063Z,100.00
2023-11-13T21:46:31.272Z,100.00
2023-11-13T21:48:58.588Z,100.00
2023-11-13T21:51:25.752Z,100.00
2023-11-13T21:53:53.138Z,100.00
2023-11-13T21:56:23.117Z,100.00
2023-11-13T21:58:50.715Z,100.00
2023-11-13T22:01:17.945Z,100.00
2023-11-13T22:03:45.184Z,100.00
2023-11-13T22:06:12.715Z,100.00
2023-11-13T22:08:39.864Z,100.00
2023-11-13T22:11:07.607Z,100.00
2023-11-13T22:13:37.181Z,100.00
2023-11-13T22:16:04.800Z,100.00
2023-11-13T22:18:32.089Z,100.00
2023-11-13T22:21:03.533Z,100.00
2023-11-13T22:23:33.113Z,100.00
2023-11-13T22:26:00.589Z,100.00
2023-11-13T22:28:28.017Z,100.00
2023-11-13T22:30:55.607Z,100.00
2023-11-13T22:33:24.367Z,100.00
2023-11-13T22:35:51.520Z,100.00
2023-11-13T22:38:18.741Z,100.00
2023-11-13T22:40:47.643Z,100.00
2023-11-13T22:43:14.968Z,100.00
2023-11-13T22:45:42.229Z,100.00
2023-11-13T22:48:10.256Z,100.00
2023-11-13T22:50:38.014Z,100.00
2023-11-13T22:53:05.261Z,100.00
2023-11-13T22:55:32.520Z,100.00
2023-11-13T22:57:59.936Z,100.00
2023-11-13T23:00:27.244Z,100.00
2023-11-13T23:02:57.563Z,100.00
2023-11-13T23:05:24.989Z,100.00
2023-11-13T23:07:52.689Z,100.00
2023-11-13T23:10:19.974Z,100.00
2023-11-13T23:12:47.098Z,100.00
2023-11-13T23:15:14.298Z,100.00
2023-11-13T23:17:41.907Z,100.00
2023-11-13T23:20:13.067Z,100.00
2023-11-13T23:22:40.608Z,100.00
2023-11-13T23:25:09.735Z,100.00
2023-11-13T23:27:37.557Z,100.00
2023-11-13T23:30:09.724Z,100.00
2023-11-13T23:32:37.792Z,100.00
2023-11-13T23:35:07.777Z,100.00
2023-11-13T23:37:35.276Z,100.00
2023-11-13T23:40:02.426Z,100.00
2023-11-13T23:42:31.070Z,100.00
2023-11-13T23:45:00.499Z,100.00
2023-11-13T23:47:30.815Z,100.00
2023-11-13T23:49:58.243Z,100.00
2023-11-13T23:52:25.526Z,100.00
2023-11-13T23:54:52.730Z,100.00
2023-11-13T23:57:20.316Z,100.00
2023-11-13T23:59:48.044Z,100.00
